Kanab, Utah
Current Conditions -  °F | °C
As of 4:15 AM on Friday 24 Oct 2014 (Local Time) from KAZC Reporting Station
Clear Clear  
Wind Chill: 37°   Ceiling: Unl
Heat Index: 40°   Visibility: 10mi
Dew Point: 33°   Wind: 5mph
Humidity: 75%   Direction: 110°ESE
Pressure: 30.26"   Gusts: NA
Location:  37.05°N, 112.53°W
Report Text: KAZC 241015Z AUTO 11004KT 10SM CLR 05/01 A3026 RMK AO2 T00470007
Loading
Personal Weather Stations






























Interactive Weather Map
Tropical Storm Tracking
New forecast layout! Learn more

10-Day Weather Forecast

Advertisements
Track Severe Weather on mobile